Ophir, Oregon
Current Conditions -  °F | °C
As of 1:56 PM on Tuesday 25 Nov 2014 (Local Time) from KBOK Reporting Station
Clear Clear  
Wind Chill: 61°   Ceiling: Unl
Heat Index: 61°   Visibility: 10mi
Dew Point: 53°   Wind: 0mph
Humidity: 75%   Direction: NA
Pressure: 30.41"   Gusts: NA
Location:  42.56°N, 124.39°W
Report Text: KBOK 252156Z AUTO 00000KT 10SM CLR 16/12 A3041 RMK AO2 T01610116 SLP297
Loading
Personal Weather Stations






























Interactive Weather Map New forecast layout! Learn more

10-Day Weather Forecast

Advertisements
Track Severe Weather on mobile